PNC weather

Ponca City Regional Airport
Ponca City, Oklahoma, United States

Public forecast

Using degrees Fahrenheit for public forecast. Weather courtesy of forecast.io.

Current aviation weather report (METAR) for Ponca City Regional Airport

Retrieved 2020/07/07 01:53 UTC (9 minutes ago):

KPNC 070153Z AUTO 08010KT 10SM CLR 28/21 A2992 RMK AO2 SLP118 T02830206

Aviation forecast (TAF) for Ponca City Regional Airport

Retrieved 2020-07-07 00:22 UTC (2 hours ago):

TAF KPNC 062320Z 0700/0724 03012KT P6SM VCTS BKN050CB FM070200 09006KT P6SM SCT050 SCT250 FM071500 14008KT P6SM FEW250